createdAt,value
2018-12-15T00:01:28.388Z,-0.14
2018-12-15T00:03:56.906Z,-0.12
2018-12-15T00:06:25.374Z,-0.15
2018-12-15T00:08:53.917Z,-0.20
2018-12-15T00:11:22.336Z,-0.18
2018-12-15T00:13:50.825Z,-0.09
2018-12-15T00:16:19.300Z,-0.14
2018-12-15T00:18:47.794Z,-0.15
2018-12-15T00:21:16.232Z,-0.18
2018-12-15T00:23:44.699Z,-0.16
2018-12-15T00:26:13.195Z,-0.11
2018-12-15T00:28:41.816Z,-0.10
2018-12-15T00:31:10.276Z,-0.13
2018-12-15T00:33:38.742Z,-0.10
2018-12-15T00:36:07.182Z,-0.15
2018-12-15T00:38:35.666Z,-0.11
2018-12-15T00:41:04.121Z,-0.13
2018-12-15T00:43:32.591Z,-0.20
2018-12-15T00:46:01.061Z,-0.22
2018-12-15T00:48:29.612Z,-0.09
2018-12-15T00:50:58.059Z,-0.02
2018-12-15T00:53:26.540Z,-0.04
2018-12-15T00:55:55.064Z,-0.11
2018-12-15T00:58:23.553Z,-0.07
2018-12-15T01:00:52.032Z,-0.09
2018-12-15T01:03:20.521Z,-0.12
2018-12-15T01:05:49.008Z,-0.20
2018-12-15T01:08:17.530Z,-0.15
2018-12-15T01:10:46.009Z,-0.16
2018-12-15T01:13:14.624Z,-0.11
2018-12-15T01:15:45.032Z,-0.08
2018-12-15T01:18:14.910Z,-0.10
2018-12-15T01:20:43.360Z,-0.10
2018-12-15T01:23:11.885Z,-0.08
2018-12-15T01:25:40.335Z,-0.09
2018-12-15T01:28:08.811Z,-0.10
2018-12-15T01:30:37.259Z,-0.04
2018-12-15T01:33:05.843Z,-0.15
2018-12-15T01:35:34.360Z,-0.10
2018-12-15T01:38:02.857Z,-0.09
2018-12-15T01:40:31.369Z,-0.08
2018-12-15T01:42:59.860Z,-0.04
2018-12-15T01:45:28.463Z,-0.08
2018-12-15T01:47:56.957Z,-0.08
2018-12-15T01:50:25.415Z,-0.07
2018-12-15T01:52:53.905Z,-0.09
2018-12-15T01:55:22.347Z,-0.09
2018-12-15T01:57:50.863Z,-0.10
2018-12-15T02:00:19.559Z,-0.14
2018-12-15T02:02:48.049Z,-0.14
2018-12-15T02:05:16.503Z,-0.17
2018-12-15T02:07:44.984Z,-0.09
2018-12-15T02:10:13.664Z,-0.15
2018-12-15T02:12:42.143Z,-0.09
2018-12-15T02:15:10.624Z,-0.11
2018-12-15T02:17:39.072Z,-0.10
2018-12-15T02:20:07.794Z,-0.07
2018-12-15T02:22:36.248Z,-0.08
2018-12-15T02:25:05.137Z,-0.04
2018-12-15T02:27:33.595Z,-0.09
2018-12-15T02:30:02.122Z,-0.11
2018-12-15T02:32:30.610Z,-0.09
2018-12-15T02:34:59.156Z,-0.09
2018-12-15T02:37:29.650Z,-0.05
2018-12-15T02:39:58.174Z,-0.10
2018-12-15T02:42:26.663Z,-0.13
2018-12-15T02:44:55.158Z,-0.15
2018-12-15T02:47:23.604Z,-0.17
2018-12-15T02:49:52.123Z,-0.18
2018-12-15T02:52:20.583Z,-0.21
2018-12-15T02:54:49.081Z,-0.14
2018-12-15T02:57:17.581Z,-0.16
2018-12-15T02:59:46.075Z,-0.21
2018-12-15T03:02:14.547Z,-0.16
2018-12-15T03:04:43.012Z,-0.21
2018-12-15T03:07:11.488Z,-0.17
2018-12-15T03:09:39.969Z,-0.17
2018-12-15T03:12:08.435Z,-0.16
2018-12-15T03:14:36.926Z,-0.08
2018-12-15T03:17:06.819Z,-0.05
2018-12-15T03:19:35.434Z,-0.07
2018-12-15T03:22:03.914Z,-0.11
2018-12-15T03:24:32.490Z,-0.10
2018-12-15T03:27:00.974Z,-0.09
2018-12-15T03:29:29.485Z,-0.06
2018-12-15T03:31:58.030Z,-0.01
2018-12-15T03:34:26.506Z,0.05
2018-12-15T03:36:54.964Z,0.05
2018-12-15T03:39:23.571Z,0.03
2018-12-15T03:41:53.116Z,-0.04
2018-12-15T03:44:21.631Z,-0.01
2018-12-15T03:46:50.083Z,0.03
2018-12-15T03:49:18.562Z,0.01
2018-12-15T03:51:47.147Z,0.00
2018-12-15T03:54:15.677Z,0.03
2018-12-15T03:56:44.149Z,-0.09
2018-12-15T03:59:12.660Z,-0.06
2018-12-15T04:01:41.252Z,-0.03
2018-12-15T04:04:09.756Z,-0.02
2018-12-15T04:06:38.519Z,-0.06
2018-12-15T04:09:07.561Z,-0.05
2018-12-15T04:11:35.996Z,-0.06
2018-12-15T04:14:04.644Z,-0.04
2018-12-15T04:16:33.093Z,0.00
2018-12-15T04:19:01.565Z,-0.09
2018-12-15T04:21:30.041Z,-0.04
2018-12-15T04:23:58.527Z,-0.04
2018-12-15T04:26:26.956Z,-0.05
2018-12-15T04:28:55.448Z,-0.01
2018-12-15T04:31:23.896Z,0.02
2018-12-15T04:33:52.391Z,0.07
2018-12-15T04:36:20.841Z,0.11
2018-12-15T04:38:49.327Z,0.13
2018-12-15T04:41:17.809Z,0.15
2018-12-15T04:43:46.387Z,0.13
2018-12-15T04:46:14.845Z,0.15
2018-12-15T04:48:43.335Z,0.12
2018-12-15T04:51:11.764Z,0.09
2018-12-15T04:53:40.212Z,0.08
2018-12-15T04:56:08.681Z,-0.02
2018-12-15T04:58:37.151Z,0.02
2018-12-15T05:01:05.704Z,0.08
2018-12-15T05:03:34.153Z,0.04
2018-12-15T05:06:02.640Z,0.09
2018-12-15T05:08:31.085Z,-0.01
2018-12-15T05:10:59.552Z,0.05
2018-12-15T05:13:28.017Z,-0.03
2018-12-15T05:15:56.552Z,-0.02
2018-12-15T05:18:25.049Z,-0.05
2018-12-15T05:20:53.535Z,0.00
2018-12-15T05:23:21.981Z,0.03
2018-12-15T05:25:50.441Z,-0.02
2018-12-15T05:28:18.917Z,-0.01
2018-12-15T05:30:47.406Z,0.03
2018-12-15T05:33:15.900Z,0.07
2018-12-15T05:35:44.392Z,0.00
2018-12-15T05:38:12.832Z,0.06
2018-12-15T05:40:41.305Z,0.10
2018-12-15T05:43:09.755Z,0.08
2018-12-15T05:45:38.227Z,0.10
2018-12-15T05:48:06.659Z,0.06
2018-12-15T05:50:35.131Z,0.00
2018-12-15T05:53:03.562Z,0.01
2018-12-15T05:55:32.118Z,0.02
2018-12-15T05:58:00.571Z,-0.04
2018-12-15T06:00:29.045Z,-0.03
2018-12-15T06:02:57.489Z,0.00
2018-12-15T06:05:26.007Z,0.05
2018-12-15T06:07:54.452Z,0.08
2018-12-15T06:10:22.935Z,0.10
2018-12-15T06:12:51.412Z,0.07
2018-12-15T06:15:19.902Z,0.12
2018-12-15T06:17:48.358Z,0.08
2018-12-15T06:20:16.819Z,0.04
2018-12-15T06:22:45.983Z,0.08
2018-12-15T06:25:14.461Z,0.03
2018-12-15T06:27:42.925Z,0.06
2018-12-15T06:30:11.531Z,0.07
2018-12-15T06:32:39.971Z,-0.02
2018-12-15T06:35:08.803Z,-0.03
2018-12-15T06:37:37.244Z,-0.02
2018-12-15T06:40:06.719Z,0.06
2018-12-15T06:42:35.164Z,0.06
2018-12-15T06:45:03.763Z,0.04
2018-12-15T06:47:32.247Z,0.00
2018-12-15T06:50:00.736Z,0.00
2018-12-15T06:52:29.208Z,-0.06
2018-12-15T06:54:57.709Z,-0.07
2018-12-15T06:57:26.173Z,-0.05
2018-12-15T06:59:54.733Z,-0.03
2018-12-15T07:02:23.200Z,-0.13
2018-12-15T07:04:51.691Z,-0.01
2018-12-15T07:07:20.121Z,0.03
2018-12-15T07:09:48.585Z,0.05
2018-12-15T07:12:17.097Z,0.11
2018-12-15T07:14:45.563Z,0.10
2018-12-15T07:17:14.064Z,0.04
2018-12-15T07:19:42.540Z,0.03
2018-12-15T07:22:11.028Z,0.11
2018-12-15T07:24:39.516Z,0.12
2018-12-15T07:27:08.033Z,0.12
2018-12-15T07:29:36.490Z,0.19
2018-12-15T07:32:05.016Z,0.19
2018-12-15T07:34:39.107Z,0.20
2018-12-15T07:37:07.636Z,0.21
2018-12-15T07:39:36.194Z,0.21
2018-12-15T07:42:04.953Z,0.23
2018-12-15T07:44:33.445Z,0.30
2018-12-15T07:47:14.880Z,0.41
2018-12-15T07:49:43.314Z,0.54
2018-12-15T07:52:11.942Z,0.74
2018-12-15T07:54:40.441Z,0.75
2018-12-15T07:57:09.041Z,0.81
2018-12-15T07:59:37.555Z,0.79
2018-12-15T08:02:06.259Z,0.75
2018-12-15T08:04:34.711Z,0.64
2018-12-15T08:07:03.971Z,0.61
2018-12-15T08:09:33.958Z,0.56
2018-12-15T08:12:07.719Z,0.53
2018-12-15T08:14:36.249Z,0.48
2018-12-15T08:17:04.828Z,0.52
2018-12-15T08:19:33.339Z,0.47
2018-12-15T08:22:01.859Z,0.45
2018-12-15T08:24:30.373Z,0.52
2018-12-15T08:26:58.880Z,0.61
2018-12-15T08:29:27.531Z,0.62
2018-12-15T08:31:56.047Z,0.60
2018-12-15T08:34:24.637Z,0.68
2018-12-15T08:36:53.220Z,0.66
2018-12-15T08:39:21.800Z,0.68
2018-12-15T08:41:50.327Z,0.76
2018-12-15T08:44:18.831Z,0.86
2018-12-15T08:46:47.570Z,0.84
2018-12-15T08:49:16.127Z,0.94
2018-12-15T08:51:45.234Z,0.94
2018-12-15T08:54:13.707Z,1.07
2018-12-15T08:56:42.194Z,1.10
2018-12-15T08:59:10.735Z,1.11
2018-12-15T09:01:39.495Z,1.12
2018-12-15T09:04:07.983Z,1.11
2018-12-15T09:06:36.560Z,1.12
2018-12-15T09:09:06.928Z,1.21
2018-12-15T09:11:35.406Z,1.17
2018-12-15T09:14:03.875Z,1.28
2018-12-15T09:16:32.385Z,1.27
2018-12-15T09:19:00.820Z,1.31
2018-12-15T09:21:29.311Z,1.34
2018-12-15T09:23:57.788Z,1.29
2018-12-15T09:26:26.412Z,1.36
2018-12-15T09:28:54.840Z,1.37
2018-12-15T09:31:23.458Z,1.42
2018-12-15T09:33:51.903Z,1.46
2018-12-15T09:36:20.372Z,1.46
2018-12-15T09:38:48.940Z,1.52
2018-12-15T09:41:17.477Z,1.57
2018-12-15T09:43:45.977Z,1.57
2018-12-15T09:46:14.512Z,1.57
2018-12-15T09:48:42.964Z,1.41
2018-12-15T09:51:12.360Z,1.47
2018-12-15T09:53:46.785Z,1.61
2018-12-15T09:56:15.466Z,1.66
2018-12-15T09:58:44.224Z,1.64
2018-12-15T10:01:13.229Z,1.64
2018-12-15T10:03:41.684Z,1.67
2018-12-15T10:06:10.211Z,1.54
2018-12-15T10:08:38.712Z,1.69
2018-12-15T10:11:07.163Z,1.74
2018-12-15T10:13:35.607Z,1.75
2018-12-15T10:16:04.197Z,1.76
2018-12-15T10:18:32.914Z,1.76
2018-12-15T10:21:01.502Z,1.70
2018-12-15T10:23:30.024Z,1.68
2018-12-15T10:25:58.488Z,1.77
2018-12-15T10:28:26.967Z,1.76
2018-12-15T10:31:01.083Z,1.79
2018-12-15T10:33:29.589Z,1.87
2018-12-15T10:35:59.200Z,1.79
2018-12-15T10:38:28.020Z,1.86
2018-12-15T10:40:56.523Z,1.89
2018-12-15T10:43:25.021Z,1.85
2018-12-15T10:45:53.507Z,1.92
2018-12-15T10:48:22.029Z,1.93
2018-12-15T10:50:50.511Z,1.97
2018-12-15T10:53:18.984Z,1.95
2018-12-15T10:55:47.781Z,1.96
2018-12-15T10:58:16.252Z,2.03
2018-12-15T11:00:49.919Z,2.11
2018-12-15T11:03:18.416Z,2.02
2018-12-15T11:05:46.870Z,2.02
2018-12-15T11:08:15.340Z,2.00
2018-12-15T11:10:43.957Z,1.91
2018-12-15T11:13:12.427Z,1.86
2018-12-15T11:15:40.886Z,1.82
2018-12-15T11:18:09.676Z,1.87
2018-12-15T11:20:38.331Z,1.78
2018-12-15T11:23:06.810Z,1.88
2018-12-15T11:25:35.237Z,1.87
2018-12-15T11:28:03.719Z,1.93
2018-12-15T11:30:32.137Z,1.90
2018-12-15T11:33:00.625Z,1.90
2018-12-15T11:35:29.093Z,1.98
2018-12-15T11:37:57.608Z,1.87
2018-12-15T11:40:26.087Z,1.93
2018-12-15T11:42:54.615Z,1.93
2018-12-15T11:45:23.138Z,1.90
2018-12-15T11:47:51.666Z,1.93
2018-12-15T11:50:20.237Z,2.02
2018-12-15T11:52:48.729Z,2.00
2018-12-15T11:55:17.160Z,1.97
2018-12-15T11:57:45.640Z,2.04
2018-12-15T12:00:14.318Z,2.05
2018-12-15T12:02:42.813Z,1.98
2018-12-15T12:05:11.300Z,2.02
2018-12-15T12:07:39.779Z,2.01
2018-12-15T12:10:08.398Z,2.07
2018-12-15T12:12:36.888Z,2.19
2018-12-15T12:15:05.827Z,2.23
2018-12-15T12:17:34.308Z,2.25
2018-12-15T12:20:03.057Z,2.23
2018-12-15T12:22:31.521Z,2.24
2018-12-15T12:24:59.959Z,2.36
2018-12-15T12:27:28.411Z,2.44
2018-12-15T12:29:56.984Z,2.50
2018-12-15T12:32:25.440Z,2.64
2018-12-15T12:34:53.887Z,2.70
2018-12-15T12:37:22.384Z,2.73
2018-12-15T12:39:50.822Z,2.80
2018-12-15T12:42:19.304Z,2.85
2018-12-15T12:44:47.741Z,2.81
2018-12-15T12:47:16.178Z,2.42
2018-12-15T12:49:44.623Z,2.43
2018-12-15T12:52:13.087Z,2.44
2018-12-15T12:54:41.520Z,2.44
2018-12-15T12:57:10.006Z,2.43
2018-12-15T12:59:38.443Z,2.41
2018-12-15T13:02:06.992Z,2.29
2018-12-15T13:04:35.461Z,2.39
2018-12-15T13:07:03.906Z,2.39
2018-12-15T13:09:32.373Z,2.29
2018-12-15T13:12:00.801Z,2.21
2018-12-15T13:14:29.392Z,2.16
2018-12-15T13:16:57.797Z,2.17
2018-12-15T13:19:26.260Z,2.16
2018-12-15T13:21:54.695Z,2.15
2018-12-15T13:24:23.327Z,2.04
2018-12-15T13:26:51.752Z,1.95
2018-12-15T13:29:20.336Z,1.91
2018-12-15T13:31:48.762Z,1.77
2018-12-15T13:34:17.236Z,1.79
2018-12-15T13:36:45.667Z,1.77
2018-12-15T13:39:14.132Z,1.77
2018-12-15T13:41:42.568Z,1.72
2018-12-15T13:44:11.013Z,1.65
2018-12-15T13:46:39.456Z,1.63
2018-12-15T13:49:07.939Z,1.56
2018-12-15T13:51:36.571Z,1.57
2018-12-15T13:54:05.074Z,1.48
2018-12-15T13:56:33.542Z,1.43
2018-12-15T13:59:02.027Z,1.43
2018-12-15T14:01:30.761Z,1.31
2018-12-15T14:03:59.463Z,1.26
2018-12-15T14:06:28.056Z,1.29
2018-12-15T14:08:56.523Z,1.24
2018-12-15T14:11:24.950Z,1.34
2018-12-15T14:13:53.415Z,1.33
2018-12-15T14:16:22.904Z,1.29
2018-12-15T14:18:51.375Z,1.24
2018-12-15T14:21:19.835Z,1.28
2018-12-15T14:23:48.301Z,1.30
2018-12-15T14:26:16.754Z,1.30
2018-12-15T14:28:45.248Z,1.25
2018-12-15T14:31:13.820Z,1.24
2018-12-15T14:33:42.291Z,1.23
2018-12-15T14:36:10.735Z,1.25
2018-12-15T14:38:39.221Z,1.24
2018-12-15T14:41:07.642Z,1.14
2018-12-15T14:43:36.121Z,1.05
2018-12-15T14:46:04.575Z,1.06
2018-12-15T14:48:33.016Z,1.12
2018-12-15T14:51:01.477Z,1.05
2018-12-15T14:53:29.943Z,0.95
2018-12-15T14:55:58.380Z,0.89
2018-12-15T15:00:55.961Z,0.84
2018-12-15T15:03:24.580Z,0.81
2018-12-15T15:05:53.060Z,0.87
2018-12-15T15:08:21.540Z,0.85
2018-12-15T15:10:49.982Z,0.81
2018-12-15T15:13:18.468Z,0.73
2018-12-15T15:15:46.919Z,0.74
2018-12-15T15:18:15.388Z,0.73
2018-12-15T15:20:43.836Z,0.70
2018-12-15T15:23:12.290Z,0.63
2018-12-15T15:25:40.748Z,0.68
2018-12-15T15:28:09.208Z,0.70
2018-12-15T15:30:37.795Z,0.65
2018-12-15T15:33:06.276Z,0.61
2018-12-15T15:35:34.730Z,0.59
2018-12-15T15:38:03.188Z,0.57
2018-12-15T15:40:31.657Z,0.54
2018-12-15T15:43:00.117Z,0.52
2018-12-15T15:45:28.959Z,0.60
2018-12-15T15:47:57.644Z,0.64
2018-12-15T15:50:26.299Z,0.61
2018-12-15T15:52:55.371Z,0.61
2018-12-15T15:55:24.206Z,0.56
2018-12-15T15:57:52.841Z,0.49
2018-12-15T16:00:21.321Z,0.49
2018-12-15T16:02:49.801Z,0.43
2018-12-15T16:05:19.024Z,0.51
2018-12-15T16:07:47.495Z,0.60
2018-12-15T16:11:40.373Z,0.64
2018-12-15T16:14:08.935Z,0.51
2018-12-15T16:16:37.425Z,0.56
2018-12-15T16:19:06.896Z,0.54
2018-12-15T16:21:35.451Z,0.53
2018-12-15T16:24:04.168Z,0.52
2018-12-15T16:26:32.636Z,0.44
2018-12-15T16:29:01.121Z,0.49
2018-12-15T16:31:29.643Z,0.49
2018-12-15T16:33:58.103Z,0.52
2018-12-15T16:36:26.539Z,0.51
2018-12-15T16:38:55.106Z,0.57
2018-12-15T16:41:23.531Z,0.56
2018-12-15T16:43:51.995Z,0.52
2018-12-15T16:46:20.412Z,0.58
2018-12-15T16:48:48.841Z,0.51
2018-12-15T16:51:17.428Z,0.56
2018-12-15T16:53:45.990Z,0.44
2018-12-15T16:56:14.536Z,0.30
2018-12-15T16:58:42.963Z,0.26
2018-12-15T17:01:11.407Z,0.24
2018-12-15T17:03:39.844Z,0.21
2018-12-15T17:06:08.441Z,0.09
2018-12-15T17:08:36.869Z,0.13
2018-12-15T17:11:05.356Z,0.15
2018-12-15T17:13:33.787Z,0.21
2018-12-15T17:16:02.268Z,0.28
2018-12-15T17:18:30.807Z,0.31
2018-12-15T17:20:59.280Z,0.37
2018-12-15T17:23:27.711Z,0.40
2018-12-15T17:25:56.163Z,0.41
2018-12-15T17:28:24.592Z,0.44
2018-12-15T17:30:53.027Z,0.44
2018-12-15T17:33:21.464Z,0.40
2018-12-15T17:35:49.920Z,0.44
2018-12-15T17:38:19.926Z,0.43
2018-12-15T17:40:48.541Z,0.47
2018-12-15T17:43:16.976Z,0.49
2018-12-15T17:45:45.449Z,0.50
2018-12-15T17:48:13.951Z,0.39
2018-12-15T17:50:42.466Z,0.22
2018-12-15T17:53:10.903Z,0.18
2018-12-15T17:55:39.353Z,0.04
2018-12-15T17:58:07.775Z,-0.01
2018-12-15T18:00:36.234Z,-0.01
2018-12-15T18:03:04.672Z,0.10
2018-12-15T18:05:33.115Z,0.12
2018-12-15T18:08:01.542Z,0.17
2018-12-15T18:10:30.016Z,0.14
2018-12-15T18:12:58.441Z,0.03
2018-12-15T18:15:26.902Z,-0.06
2018-12-15T18:17:55.404Z,-0.08
2018-12-15T18:20:23.886Z,-0.13
2018-12-15T18:22:52.332Z,-0.13
2018-12-15T18:25:20.799Z,-0.10
2018-12-15T18:27:49.227Z,-0.07
2018-12-15T18:30:17.696Z,-0.03
2018-12-15T18:32:46.140Z,-0.04
2018-12-15T18:35:14.584Z,-0.01
2018-12-15T18:37:43.020Z,-0.04
2018-12-15T18:40:11.509Z,-0.06
2018-12-15T18:42:39.926Z,-0.10
2018-12-15T18:45:08.612Z,-0.18
2018-12-15T18:47:37.044Z,-0.31
2018-12-15T18:50:07.299Z,-0.50
2018-12-15T18:52:35.737Z,-0.61
2018-12-15T18:55:04.592Z,-0.67
2018-12-15T18:57:33.027Z,-0.78
2018-12-15T19:00:01.491Z,-0.86
2018-12-15T19:02:29.930Z,-0.97
2018-12-15T19:04:58.382Z,-1.01
2018-12-15T19:07:26.808Z,-1.05
2018-12-15T19:09:55.268Z,-1.15
2018-12-15T19:12:23.727Z,-1.20
2018-12-15T19:14:52.180Z,-1.27
2018-12-15T19:17:20.621Z,-1.29
2018-12-15T19:19:49.083Z,-1.44
2018-12-15T19:22:17.512Z,-1.42
2018-12-15T19:24:46.449Z,-1.48
2018-12-15T19:27:14.899Z,-1.51
2018-12-15T19:29:43.324Z,-1.52
2018-12-15T19:32:11.779Z,-1.58
2018-12-15T19:34:40.232Z,-1.63
2018-12-15T19:37:08.826Z,-1.66
2018-12-15T19:39:37.300Z,-1.64
2018-12-15T19:42:05.752Z,-1.61
2018-12-15T19:44:34.203Z,-1.68
2018-12-15T19:47:02.684Z,-1.71
2018-12-15T19:49:31.117Z,-1.75
2018-12-15T19:51:59.599Z,-1.82
2018-12-15T19:54:28.040Z,-1.85
2018-12-15T19:56:56.540Z,-1.84
2018-12-15T19:59:24.972Z,-1.85
2018-12-15T20:01:53.459Z,-1.82
2018-12-15T20:04:21.908Z,-1.85
2018-12-15T20:06:50.400Z,-1.91
2018-12-15T20:09:18.857Z,-1.93
2018-12-15T20:11:47.463Z,-1.98
2018-12-15T20:14:15.924Z,-1.98
2018-12-15T20:16:44.400Z,-2.01
2018-12-15T20:19:12.817Z,-2.06
2018-12-15T20:21:41.300Z,-2.07
2018-12-15T20:24:09.823Z,-2.10
2018-12-15T20:26:38.290Z,-2.12
2018-12-15T20:29:06.740Z,-2.16
2018-12-15T20:31:35.213Z,-2.18
2018-12-15T20:34:03.676Z,-2.19
2018-12-15T20:36:32.160Z,-2.21
2018-12-15T20:39:00.618Z,-2.25
2018-12-15T20:41:29.098Z,-2.29
2018-12-15T20:43:57.544Z,-2.34
2018-12-15T20:46:26.045Z,-2.33
2018-12-15T20:48:54.520Z,-2.33
2018-12-15T20:51:23.019Z,-2.36
2018-12-15T20:53:51.480Z,-2.36
2018-12-15T20:56:19.979Z,-2.38
2018-12-15T20:58:48.560Z,-2.40
2018-12-15T21:01:17.065Z,-2.41
2018-12-15T21:03:45.529Z,-2.47
2018-12-15T21:06:14.039Z,-2.51
2018-12-15T21:08:42.483Z,-2.51
2018-12-15T21:11:11.013Z,-2.48
2018-12-15T21:13:39.484Z,-2.54
2018-12-15T21:16:08.023Z,-2.57
2018-12-15T21:18:37.073Z,-2.63
2018-12-15T21:21:05.597Z,-2.65
2018-12-15T21:23:34.083Z,-2.66
2018-12-15T21:26:02.685Z,-2.72
2018-12-15T21:28:31.139Z,-2.74
2018-12-15T21:30:59.653Z,-2.84
2018-12-15T21:33:28.136Z,-2.85
2018-12-15T21:35:56.654Z,-2.89
2018-12-15T21:38:25.122Z,-2.91
2018-12-15T21:40:53.580Z,-2.89
2018-12-15T21:43:22.144Z,-2.88
2018-12-15T21:45:50.639Z,-2.91
2018-12-15T21:48:19.105Z,-2.90
2018-12-15T21:50:47.587Z,-2.91
2018-12-15T21:53:16.080Z,-2.97
2018-12-15T21:55:44.545Z,-2.96
2018-12-15T21:58:13.041Z,-3.01
2018-12-15T22:00:41.598Z,-2.99
2018-12-15T22:03:10.078Z,-3.02
2018-12-15T22:05:38.576Z,-3.05
2018-12-15T22:08:07.193Z,-3.11
2018-12-15T22:10:36.172Z,-3.15
2018-12-15T22:13:04.903Z,-3.16
2018-12-15T22:15:33.368Z,-3.17
2018-12-15T22:18:01.856Z,-3.20
2018-12-15T22:20:30.529Z,-3.20
2018-12-15T22:22:59.006Z,-3.28
2018-12-15T22:25:27.464Z,-3.28
2018-12-15T22:27:55.944Z,-3.25
2018-12-15T22:30:24.410Z,-3.26
2018-12-15T22:32:52.909Z,-3.27
2018-12-15T22:35:21.348Z,-3.31
2018-12-15T22:37:49.844Z,-3.32
2018-12-15T22:40:18.305Z,-3.32
2018-12-15T22:42:46.822Z,-3.34
2018-12-15T22:45:15.302Z,-3.34
2018-12-15T22:47:43.805Z,-3.39
2018-12-15T22:50:12.480Z,-3.38
2018-12-15T22:52:40.968Z,-3.40
2018-12-15T22:55:09.564Z,-3.43
2018-12-15T22:57:38.044Z,-3.51
2018-12-15T23:00:08.856Z,-3.55
2018-12-15T23:02:37.346Z,-3.61
2018-12-15T23:05:05.983Z,-3.64
2018-12-15T23:07:34.470Z,-3.67
2018-12-15T23:10:02.941Z,-3.70
2018-12-15T23:12:31.527Z,-3.71
2018-12-15T23:15:00.028Z,-3.77
2018-12-15T23:17:28.526Z,-3.79
2018-12-15T23:19:56.977Z,-3.78
2018-12-15T23:22:25.478Z,-3.78
2018-12-15T23:24:53.955Z,-3.82
2018-12-15T23:27:22.571Z,-3.83
2018-12-15T23:29:51.043Z,-3.84
2018-12-15T23:32:19.524Z,-3.80
2018-12-15T23:34:48.968Z,-3.80
2018-12-15T23:37:17.446Z,-3.82
2018-12-15T23:39:45.923Z,-3.80
2018-12-15T23:42:14.411Z,-3.80
2018-12-15T23:44:42.871Z,-3.77
2018-12-15T23:47:11.368Z,-3.81
2018-12-15T23:49:39.843Z,-3.84
2018-12-15T23:52:08.333Z,-3.95
2018-12-15T23:54:36.857Z,-4.07
2018-12-15T23:57:05.364Z,-4.13
2018-12-15T23:59:33.820Z,-4.18
